This is the latest recevied weather packets stored in our database for station/object K9RCP-20. If no packets are shown the sender has not sent any weather packets the latest 10 day(s).
| Time | Temp. | Humidity | Pressure | Rain* | Wind** | Luminosity | Snow |
|---|---|---|---|---|---|---|---|
| 1778266699 | 17.22° C | 57% | 1019.6 hPa | 0 mm | - | 633 W/m² | - |
| 1778266397 | 16.11° C | 61% | 1019.6 hPa | 0 mm | - | 908 W/m² | - |
| 1778266094 | 15.56° C | 59% | 1019.5 hPa | 0 mm | - | 959 W/m² | - |
| 1778265791 | 15° C | 62% | 1019.6 hPa | 0 mm | - | 428 W/m² | - |
| 1778265482 | 15° C | 63% | 1019.8 hPa | 0 mm | - | 274 W/m² | - |
| 1778265179 | 16.11° C | 60% | 1019.6 hPa | 0 mm | - | 284 W/m² | - |
| 1778264874 | 15.56° C | 61% | 1019.7 hPa | 0 mm | - | 374 W/m² | - |
| 1778264571 | 15° C | 60% | 1019.7 hPa | 0 mm | - | 567 W/m² | - |
| 1778264267 | 14.44° C | 61% | 1019.5 hPa | 0 mm | - | 363 W/m² | - |
| 1778263964 | 14.44° C | 64% | 1019.7 hPa | 0 mm | - | 347 W/m² | - |
| 1778263661 | 15° C | 63% | 1019.4 hPa | 0 mm | - | 308 W/m² | - |
| 1778263358 | 15.56° C | 61% | 1019.5 hPa | 0 mm | - | 858 W/m² | - |
| 1778263054 | 15° C | 63% | 1019.4 hPa | 0 mm | - | 357 W/m² | - |
| 1778262751 | 14.44° C | 62% | 1019.3 hPa | 0 mm | - | 731 W/m² | - |
| 1778262449 | 14.44° C | 63% | 1019.4 hPa | 0 mm | - | 483 W/m² | - |
| 1778261235 | 13.89° C | 68% | 1019.4 hPa | 0 mm | - | 641 W/m² | - |
| 1778260932 | 13.89° C | 68% | 1019.3 hPa | 0 mm | - | 641 W/m² | - |
| 1778260628 | 12.78° C | 70% | 1019.2 hPa | 0 mm | - | 261 W/m² | - |
| 1778260325 | 12.78° C | 70% | 1019.5 hPa | 0 mm | - | 261 W/m² | - |
| 1778260022 | 12.78° C | 72% | 1019.4 hPa | 0 mm | - | 382 W/m² | - |
| 1778259720 | 12.78° C | 73% | 1019.2 hPa | 0 mm | - | 225 W/m² | - |
| 1778259417 | 12.22° C | 74% | 1019.2 hPa | 0 mm | - | 171 W/m² | - |
| 1778259113 | 12.78° C | 73% | 1019 hPa | 0 mm | - | 113 W/m² | - |
| 1778258810 | 12.78° C | 72% | 1018.8 hPa | 0 mm | - | 169 W/m² | - |
| 1778258507 | 12.22° C | 73% | 1019.2 hPa | 0 mm | - | 186 W/m² | - |
* Rain latest hour (hover to see other rain measurements)
** Current wind speed in m/s (hover to see current wind gust speed)